createdAt,value
2017-08-28T00:02:47.462Z,100583
2017-08-28T00:05:17.027Z,100588
2017-08-28T00:07:46.648Z,100589
2017-08-28T00:10:16.480Z,100579
2017-08-28T00:12:46.725Z,100582
2017-08-28T00:15:16.564Z,100587
2017-08-28T00:17:46.164Z,100586
2017-08-28T00:20:16.014Z,100587
2017-08-28T00:22:45.597Z,100590
2017-08-28T00:25:21.930Z,100592
2017-08-28T00:27:51.525Z,100593
2017-08-28T00:30:21.162Z,100594
2017-08-28T00:32:51.741Z,100594
2017-08-28T00:35:21.396Z,100599
2017-08-28T00:37:51.099Z,100588
2017-08-28T00:40:20.703Z,100594
2017-08-28T00:42:50.334Z,100590
2017-08-28T00:45:19.931Z,100596
2017-08-28T00:47:49.608Z,100594
2017-08-28T00:50:19.184Z,100599
2017-08-28T00:58:37.611Z,100600
2017-08-28T01:01:07.181Z,100600
2017-08-28T01:03:37.115Z,100617
2017-08-28T01:06:06.690Z,100605
2017-08-28T01:08:36.316Z,100613
2017-08-28T01:11:05.893Z,100609
2017-08-28T01:13:35.536Z,100606
2017-08-28T01:16:05.115Z,100613
2017-08-28T01:18:34.744Z,100612
2017-08-28T01:21:23.180Z,100618
2017-08-28T01:23:52.744Z,100615
2017-08-28T01:26:22.362Z,100611
2017-08-28T01:28:52.009Z,100604
2017-08-28T01:31:21.586Z,100607
2017-08-28T01:33:51.245Z,100606
2017-08-28T01:36:20.805Z,100610
2017-08-28T01:38:50.570Z,100613
2017-08-28T01:41:20.526Z,100613
2017-08-28T01:43:50.161Z,100609
2017-08-28T01:46:19.739Z,100613
2017-08-28T01:54:38.173Z,100618
2017-08-28T01:57:07.750Z,100613
2017-08-28T01:59:37.420Z,100609
2017-08-28T02:02:07.076Z,100609
2017-08-28T02:04:36.853Z,100616
2017-08-28T02:07:06.505Z,100613
2017-08-28T02:09:36.122Z,100615
2017-08-28T02:12:05.768Z,100614
2017-08-28T02:14:35.333Z,100619
2017-08-28T02:17:22.035Z,100616
2017-08-28T02:22:46.721Z,100631
2017-08-28T02:25:16.357Z,100632
2017-08-28T02:27:45.926Z,100628
2017-08-28T02:30:15.538Z,100624
2017-08-28T02:32:45.118Z,100623
2017-08-28T02:35:14.712Z,100630
2017-08-28T02:37:44.273Z,100633
2017-08-28T02:40:13.917Z,100625
2017-08-28T02:42:43.500Z,100623
2017-08-28T02:45:13.169Z,100626
2017-08-28T02:47:42.736Z,100624
2017-08-28T02:50:12.480Z,100623
2017-08-28T02:52:42.450Z,100625
2017-08-28T02:55:12.125Z,100638
2017-08-28T02:57:41.719Z,100640
2017-08-28T03:00:21.361Z,100635
2017-08-28T03:02:50.932Z,100640
2017-08-28T03:05:20.566Z,100634
2017-08-28T03:07:50.138Z,100633
2017-08-28T03:10:19.807Z,100637
2017-08-28T03:12:49.368Z,100630
2017-08-28T03:15:19.018Z,100640
2017-08-28T03:17:48.664Z,100642
2017-08-28T03:20:18.290Z,100649
2017-08-28T03:22:47.866Z,100644
2017-08-28T03:25:17.492Z,100646
2017-08-28T03:27:47.098Z,100641
2017-08-28T03:30:22.792Z,100653
2017-08-28T03:32:52.375Z,100657
2017-08-28T03:35:22.229Z,100651
2017-08-28T03:37:51.810Z,100664
2017-08-28T03:40:21.459Z,100662
2017-08-28T03:42:51.020Z,100660
2017-08-28T03:45:20.674Z,100668
2017-08-28T03:47:50.257Z,100671
2017-08-28T03:50:20.095Z,100674
2017-08-28T03:52:49.665Z,100671
2017-08-28T03:55:19.271Z,100671
2017-08-28T03:57:48.924Z,100671
2017-08-28T04:00:18.498Z,100675
2017-08-28T04:02:48.470Z,100671
2017-08-28T04:05:18.051Z,100671
2017-08-28T04:07:47.852Z,100668
2017-08-28T04:10:23.603Z,100672
2017-08-28T04:12:53.214Z,100682
2017-08-28T04:15:23.418Z,100679
2017-08-28T04:17:53.054Z,100679
2017-08-28T04:20:22.625Z,100680
2017-08-28T04:22:52.872Z,100678
2017-08-28T04:25:23.053Z,100684
2017-08-28T04:27:53.392Z,100683
2017-08-28T04:30:23.000Z,100683
2017-08-28T04:32:53.050Z,100687
2017-08-28T04:35:22.629Z,100693
2017-08-28T04:40:47.598Z,100692
2017-08-28T04:43:17.165Z,100691
2017-08-28T04:45:46.772Z,100696
2017-08-28T04:48:16.423Z,100693
2017-08-28T04:50:46.277Z,100697
2017-08-28T04:53:16.698Z,100697
2017-08-28T04:55:46.620Z,100700
2017-08-28T04:58:16.283Z,100711
2017-08-28T05:00:45.857Z,100702
2017-08-28T05:03:15.431Z,100711
2017-08-28T05:05:45.750Z,100710
2017-08-28T05:08:15.409Z,100715
2017-08-28T05:10:45.133Z,100720
2017-08-28T05:13:14.711Z,100726
2017-08-28T05:15:44.480Z,100719
2017-08-28T05:18:14.478Z,100723
2017-08-28T05:20:44.857Z,100720
2017-08-28T05:23:15.199Z,100721
2017-08-28T05:25:44.849Z,100722
2017-08-28T05:28:14.567Z,100726
2017-08-28T05:30:44.958Z,100722
2017-08-28T05:33:21.272Z,100723
2017-08-28T05:35:50.912Z,100722
2017-08-28T05:38:20.516Z,100732
2017-08-28T05:40:50.240Z,100726
2017-08-28T05:43:19.813Z,100732
2017-08-28T05:45:50.033Z,100735
2017-08-28T05:48:23.001Z,100737
2017-08-28T05:50:52.569Z,100737
2017-08-28T05:53:22.216Z,100742
2017-08-28T05:55:52.260Z,100740
2017-08-28T05:58:21.907Z,100746
2017-08-28T06:00:52.228Z,100752
2017-08-28T06:03:21.881Z,100748
2017-08-28T06:05:51.553Z,100747
2017-08-28T06:08:21.859Z,100739
2017-08-28T06:10:51.997Z,100737
2017-08-28T06:16:22.352Z,100742
2017-08-28T06:19:04.462Z,100742
2017-08-28T06:21:34.086Z,100745
2017-08-28T06:24:23.277Z,100729
2017-08-28T06:38:31.130Z,100758
2017-08-28T06:44:08.483Z,100748
2017-08-28T06:52:27.546Z,100752
2017-08-28T06:54:57.515Z,100736
2017-08-28T06:57:27.894Z,100737
2017-08-28T07:00:21.046Z,100750
2017-08-28T07:02:50.656Z,100751
2017-08-28T07:05:21.125Z,100748
2017-08-28T07:07:51.321Z,100746
2017-08-28T07:10:21.157Z,100746
2017-08-28T07:15:46.277Z,100749
2017-08-28T07:18:21.823Z,100748
2017-08-28T07:32:22.616Z,100754
2017-08-28T07:37:47.027Z,100754
2017-08-28T07:40:22.414Z,100761
2017-08-28T07:54:28.515Z,100769
2017-08-28T08:03:59.637Z,100769
2017-08-28T08:06:29.211Z,100767
2017-08-28T08:14:48.935Z,100775
2017-08-28T08:17:22.251Z,100762
2017-08-28T08:19:52.639Z,100772
2017-08-28T08:22:22.217Z,100769
2017-08-28T08:25:33.741Z,100756
2017-08-28T08:28:03.508Z,100772
2017-08-28T08:30:33.117Z,100763
2017-08-28T08:33:22.221Z,100763
2017-08-28T08:38:46.314Z,100771
2017-08-28T08:41:22.640Z,100764
2017-08-28T08:46:46.638Z,100777
2017-08-28T08:49:22.178Z,100775
2017-08-28T08:51:52.046Z,100769
2017-08-28T08:54:21.634Z,100770
2017-08-28T08:56:51.265Z,100773
2017-08-28T08:59:20.837Z,100767
2017-08-28T09:04:45.138Z,100762
2017-08-28T09:07:14.706Z,100767
2017-08-28T09:09:44.281Z,100772
2017-08-28T09:12:13.904Z,100764
2017-08-28T09:14:43.542Z,100767
2017-08-28T09:17:13.448Z,100772
2017-08-28T09:19:43.029Z,100774
2017-08-28T09:22:12.608Z,100770
2017-08-28T09:24:42.282Z,100766
2017-08-28T09:27:11.936Z,100766
2017-08-28T09:29:41.597Z,100775
2017-08-28T09:32:24.132Z,100765
2017-08-28T09:34:53.710Z,100772
2017-08-28T09:37:23.276Z,100773
2017-08-28T09:39:52.931Z,100777
2017-08-28T09:42:22.507Z,100784
2017-08-28T09:44:52.098Z,100783
2017-08-28T09:47:22.145Z,100780
2017-08-28T09:49:51.731Z,100774
2017-08-28T09:52:21.312Z,100783
2017-08-28T09:54:50.920Z,100776
2017-08-28T09:57:20.504Z,100778
2017-08-28T10:02:45.114Z,100788
2017-08-28T10:05:14.713Z,100792
2017-08-28T10:07:44.282Z,100775
2017-08-28T10:10:22.247Z,100782
2017-08-28T10:12:51.807Z,100783
2017-08-28T10:15:22.852Z,100784
2017-08-28T10:20:47.394Z,100776
2017-08-28T10:23:16.986Z,100773
2017-08-28T10:25:46.710Z,100771
2017-08-28T10:28:22.643Z,100767
2017-08-28T10:30:52.221Z,100768
2017-08-28T10:33:22.002Z,100778
2017-08-28T10:38:46.390Z,100786
2017-08-28T10:41:19.836Z,100779
2017-08-28T11:10:50.109Z,100760
2017-08-28T11:19:02.423Z,100749
2017-08-28T11:24:26.362Z,100745
2017-08-28T11:41:29.521Z,100749
2017-08-28T11:44:24.403Z,100748
2017-08-28T11:58:31.369Z,100760
2017-08-28T12:02:24.209Z,100750
2017-08-28T12:08:01.610Z,100743
2017-08-28T12:32:22.708Z,100735
2017-08-28T12:37:48.264Z,100732
2017-08-28T12:43:21.890Z,100721
2017-08-28T12:48:46.257Z,100721
2017-08-28T12:51:15.860Z,100733
2017-08-28T12:53:45.478Z,100724
2017-08-28T12:56:15.098Z,100726
2017-08-28T12:58:44.703Z,100723
2017-08-28T13:01:21.618Z,100726
2017-08-28T13:03:51.229Z,100716
2017-08-28T13:06:20.822Z,100719
2017-08-28T13:08:50.493Z,100720
2017-08-28T13:11:20.116Z,100720
2017-08-28T13:13:49.751Z,100715
2017-08-28T13:16:22.363Z,100717
2017-08-28T13:19:08.472Z,100715
2017-08-28T13:21:38.079Z,100712
2017-08-28T13:24:07.676Z,100704
2017-08-28T13:26:37.313Z,100704
2017-08-28T13:29:06.885Z,100707
2017-08-28T13:31:36.528Z,100705
2017-08-28T13:34:06.135Z,100706
2017-08-28T13:36:35.741Z,100704
2017-08-28T13:39:05.564Z,100699
2017-08-28T13:41:35.170Z,100694
2017-08-28T13:44:04.737Z,100699
2017-08-28T13:46:34.306Z,100705
2017-08-28T13:49:10.463Z,100709
2017-08-28T13:51:40.048Z,100703
2017-08-28T13:54:09.674Z,100702
2017-08-28T13:56:39.255Z,100703
2017-08-28T13:59:09.067Z,100700
2017-08-28T14:01:39.269Z,100696
2017-08-28T14:04:08.855Z,100696
2017-08-28T14:06:38.433Z,100693
2017-08-28T14:09:08.060Z,100690
2017-08-28T14:15:07.544Z,100683
2017-08-28T14:17:37.126Z,100678
2017-08-28T14:20:06.697Z,100679
2017-08-28T14:22:36.310Z,100681
2017-08-28T14:25:06.097Z,100677
2017-08-28T14:27:35.971Z,100676
2017-08-28T14:30:05.636Z,100685
2017-08-28T14:32:35.226Z,100685
2017-08-28T14:35:04.873Z,100687
2017-08-28T14:37:34.449Z,100695
2017-08-28T14:40:10.571Z,100691
2017-08-28T14:42:40.145Z,100690
2017-08-28T14:45:09.717Z,100681
2017-08-28T14:47:39.432Z,100688
2017-08-28T14:50:09.006Z,100690
2017-08-28T14:52:38.582Z,100687
2017-08-28T14:55:08.207Z,100684
2017-08-28T14:57:37.773Z,100683
2017-08-28T15:00:07.396Z,100680
2017-08-28T15:02:36.967Z,100689
2017-08-28T15:05:06.589Z,100682
2017-08-28T15:07:36.197Z,100683
2017-08-28T15:10:05.783Z,100687
2017-08-28T15:12:35.353Z,100688
2017-08-28T15:15:04.978Z,100685
2017-08-28T15:17:34.553Z,100680
2017-08-28T15:20:04.386Z,100688
2017-08-28T15:22:33.961Z,100680
2017-08-28T15:25:09.649Z,100680
2017-08-28T15:27:39.705Z,100685
2017-08-28T15:30:09.296Z,100679
2017-08-28T15:32:38.909Z,100679
2017-08-28T15:35:08.490Z,100684
2017-08-28T15:37:38.129Z,100684
2017-08-28T15:40:07.751Z,100674
2017-08-28T15:42:37.512Z,100689
2017-08-28T15:45:07.120Z,100687
2017-08-28T15:47:36.746Z,100690
2017-08-28T15:50:09.657Z,100695
2017-08-28T15:52:39.290Z,100701
2017-08-28T15:55:08.868Z,100696
2017-08-28T15:57:38.458Z,100690
2017-08-28T16:00:08.078Z,100691
2017-08-28T16:02:37.662Z,100694
2017-08-28T16:05:07.241Z,100695
2017-08-28T16:10:31.122Z,100681
2017-08-28T16:13:00.708Z,100683
2017-08-28T16:15:30.276Z,100685
2017-08-28T16:18:07.915Z,100682
2017-08-28T16:20:37.494Z,100683
2017-08-28T16:23:07.074Z,100693
2017-08-28T16:25:37.684Z,100690
2017-08-28T16:28:07.271Z,100692
2017-08-28T16:30:37.014Z,100688
2017-08-28T16:33:06.639Z,100694
2017-08-28T16:35:36.229Z,100695
2017-08-28T16:38:05.813Z,100695
2017-08-28T16:40:35.449Z,100698
2017-08-28T16:43:05.202Z,100697
2017-08-28T16:45:34.769Z,100702
2017-08-28T16:48:04.380Z,100700
2017-08-28T16:50:33.994Z,100695
2017-08-28T16:53:03.670Z,100697
2017-08-28T16:55:33.295Z,100697
2017-08-28T16:58:02.881Z,100702
2017-08-28T17:00:32.486Z,100701
2017-08-28T17:03:02.127Z,100708
2017-08-28T17:05:32.730Z,100708
2017-08-28T17:08:02.402Z,100708
2017-08-28T17:14:07.040Z,100711
2017-08-28T17:16:36.614Z,100705
2017-08-28T17:19:06.233Z,100704
2017-08-28T17:21:35.825Z,100708
2017-08-28T17:24:05.470Z,100711
2017-08-28T17:26:35.139Z,100703
2017-08-28T17:29:04.730Z,100711
2017-08-28T17:31:34.315Z,100710
2017-08-28T17:34:04.167Z,100699
2017-08-28T17:36:33.751Z,100709
2017-08-28T17:39:03.392Z,100712
2017-08-28T17:44:31.226Z,100722
2017-08-28T17:47:00.805Z,100720
2017-08-28T17:49:30.391Z,100720
2017-08-28T17:52:00.008Z,100718
2017-08-28T17:54:29.597Z,100719
2017-08-28T17:57:09.138Z,100715
2017-08-28T17:59:38.740Z,100723
2017-08-28T18:02:08.879Z,100728
2017-08-28T18:04:38.534Z,100732
2017-08-28T18:07:08.146Z,100737
2017-08-28T18:12:32.186Z,100725
2017-08-28T18:15:01.768Z,100738
2017-08-28T18:17:31.377Z,100737
2017-08-28T18:20:01.001Z,100740
2017-08-28T18:25:25.933Z,100746
2017-08-28T18:28:07.753Z,100746
2017-08-28T18:30:37.381Z,100747
2017-08-28T18:33:08.558Z,100752
2017-08-28T18:35:38.222Z,100751
2017-08-28T18:38:07.800Z,100748
2017-08-28T18:40:37.436Z,100749
2017-08-28T18:43:07.016Z,100750
2017-08-28T18:45:36.808Z,100753
2017-08-28T18:48:06.452Z,100753
2017-08-28T18:50:36.046Z,100756
2017-08-28T18:53:05.644Z,100759
2017-08-28T18:55:35.314Z,100761
2017-08-28T18:58:04.903Z,100766
2017-08-28T19:00:34.538Z,100772
2017-08-28T19:03:04.180Z,100770
2017-08-28T19:05:33.754Z,100773
2017-08-28T19:08:03.389Z,100774
2017-08-28T19:10:32.986Z,100770
2017-08-28T19:13:02.566Z,100764
2017-08-28T19:15:32.286Z,100771
2017-08-28T19:18:07.622Z,100774
2017-08-28T19:20:37.234Z,100771
2017-08-28T19:23:07.334Z,100778
2017-08-28T19:25:36.905Z,100784
2017-08-28T19:28:06.533Z,100773
2017-08-28T19:30:36.142Z,100779
2017-08-28T19:33:05.722Z,100782
2017-08-28T19:35:35.361Z,100785
2017-08-28T19:38:04.975Z,100783
2017-08-28T19:40:34.624Z,100785
2017-08-28T19:43:04.199Z,100788
2017-08-28T19:48:29.135Z,100786
2017-08-28T19:51:00.936Z,100790
2017-08-28T19:53:30.587Z,100788
2017-08-28T19:56:08.335Z,100787
2017-08-28T20:04:27.048Z,100787
2017-08-28T20:07:08.965Z,100783
2017-08-28T20:09:38.582Z,100793
2017-08-28T20:12:08.187Z,100790
2017-08-28T20:14:57.185Z,100796
2017-08-28T20:17:27.112Z,100790
2017-08-28T20:19:56.809Z,100797
2017-08-28T20:22:27.347Z,100794
2017-08-28T20:25:09.197Z,100797
2017-08-28T20:30:34.517Z,100797
2017-08-28T20:33:04.113Z,100797
2017-08-28T20:35:33.774Z,100803
2017-08-28T20:38:03.364Z,100803
2017-08-28T20:40:33.008Z,100797
2017-08-28T20:43:09.628Z,100800
2017-08-28T20:45:39.265Z,100810
2017-08-28T20:48:08.889Z,100804
2017-08-28T20:50:38.782Z,100809
2017-08-28T20:53:08.491Z,100816
2017-08-28T20:55:38.088Z,100814
2017-08-28T20:58:07.703Z,100808
2017-08-28T21:00:37.299Z,100805
2017-08-28T21:05:59.668Z,100805
2017-08-28T21:08:29.327Z,100809
2017-08-28T21:11:11.660Z,100813
2017-08-28T21:13:42.082Z,100816
2017-08-28T21:16:11.771Z,100807
2017-08-28T21:18:41.452Z,100814
2017-08-28T21:21:11.030Z,100809
2017-08-28T21:23:40.665Z,100813
2017-08-28T21:26:10.250Z,100814
2017-08-28T21:28:39.901Z,100811
2017-08-28T21:33:44.573Z,100815
2017-08-28T21:36:14.158Z,100813
2017-08-28T21:38:43.740Z,100817
2017-08-28T21:41:13.344Z,100811
2017-08-28T21:43:43.102Z,100807
2017-08-28T21:46:13.277Z,100806
2017-08-28T21:48:42.849Z,100807
2017-08-28T21:51:12.481Z,100806
2017-08-28T21:53:42.368Z,100802
2017-08-28T21:56:12.125Z,100807
2017-08-28T21:58:41.728Z,100808
2017-08-28T22:01:11.324Z,100801
2017-08-28T22:03:40.899Z,100803
2017-08-28T22:06:10.550Z,100804
2017-08-28T22:08:40.117Z,100805
2017-08-28T22:11:09.855Z,100806
2017-08-28T22:16:33.891Z,100807
2017-08-28T22:19:09.125Z,100802
2017-08-28T22:21:38.734Z,100793
2017-08-28T22:24:08.323Z,100794
2017-08-28T22:26:38.713Z,100803
2017-08-28T22:29:08.651Z,100801
2017-08-28T22:31:38.297Z,100802
2017-08-28T22:34:07.864Z,100805
2017-08-28T22:36:37.504Z,100808
2017-08-28T22:39:07.090Z,100818
2017-08-28T22:44:31.302Z,100820
2017-08-28T22:47:00.972Z,100811
2017-08-28T22:49:30.563Z,100804
2017-08-28T22:52:01.732Z,100814
2017-08-28T22:54:31.310Z,100815
2017-08-28T22:57:01.579Z,100819
2017-08-28T22:59:31.413Z,100810
2017-08-28T23:02:09.129Z,100810
2017-08-28T23:04:39.376Z,100808
2017-08-28T23:07:09.261Z,100803
2017-08-28T23:09:39.349Z,100807
2017-08-28T23:12:09.742Z,100811
2017-08-28T23:14:39.978Z,100817
2017-08-28T23:17:10.025Z,100815
2017-08-28T23:19:39.596Z,100808
2017-08-28T23:22:09.229Z,100805
2017-08-28T23:24:39.513Z,100802
2017-08-28T23:27:09.158Z,100810
2017-08-28T23:32:33.079Z,100814
2017-08-28T23:35:02.655Z,100810
2017-08-28T23:37:33.118Z,100807
2017-08-28T23:40:03.358Z,100797
2017-08-28T23:42:32.982Z,100804
2017-08-28T23:45:02.563Z,100804
2017-08-28T23:47:32.160Z,100801
2017-08-28T23:50:08.268Z,100811
2017-08-28T23:52:38.108Z,100803
2017-08-28T23:55:07.996Z,100810
2017-08-28T23:57:37.679Z,100806
